Time;durP1;ratioP1;P1;durP2;ratioP2;P2;SDS_P1;SDS_P2;PMS_P1;PMS_P2;Temp;Humidity;BMP_temperature;BMP_pressure;BME280_temperature;BME280_humidity;BME280_pressure;Samples;Min_cycle;Max_cycle;Signal;HPM_P1;HPM_P2
2023/05/16 00:01:20;;;;;;;18.48;10.65;;;;;;;19.65;52.17;102095.94;5023234;28;20085;-33
2023/05/16 00:03:47;;;;;;;15.82;9.82;;;;;;;19.64;52.06;102104.16;5024679;28;20057;-33
2023/05/16 00:06:14;;;;;;;20.70;10.07;;;;;;;19.64;52.43;102112.25;5026650;28;20314;-33
2023/05/16 00:08:41;;;;;;;15.57;9.98;;;;;;;19.63;51.90;102103.31;5026733;28;20874;-33
2023/05/16 00:11:08;;;;;;;17.13;9.60;;;;;;;19.62;52.31;102107.00;5026660;28;21165;-33
2023/05/16 00:13:34;;;;;;;21.63;9.93;;;;;;;19.62;52.25;102107.00;5021198;28;20050;-33
2023/05/16 00:16:01;;;;;;;16.75;9.07;;;;;;;19.60;51.77;102108.94;5025959;28;20041;-33
2023/05/16 00:18:28;;;;;;;18.25;10.60;;;;;;;19.60;52.25;102106.25;5022669;28;20047;-33
2023/05/16 00:20:55;;;;;;;17.85;9.40;;;;;;;19.59;51.69;102106.38;5025212;28;20049;-33
2023/05/16 00:23:21;;;;;;;16.15;9.70;;;;;;;19.59;52.29;102106.38;5025558;28;20333;-32
2023/05/16 00:25:48;;;;;;;15.95;9.63;;;;;;;19.58;51.83;102113.59;5025105;28;20077;-33
2023/05/16 00:28:15;;;;;;;14.60;9.02;;;;;;;19.56;52.14;102104.81;5023339;28;20046;-33
2023/05/16 00:30:42;;;;;;;17.15;9.45;;;;;;;19.56;51.87;102110.19;5028250;28;20077;-33
2023/05/16 00:33:08;;;;;;;17.17;9.02;;;;;;;19.56;51.53;102107.50;5026291;28;20326;-32
2023/05/16 00:35:35;;;;;;;13.93;9.32;;;;;;;19.55;52.25;102108.47;5023876;28;20050;-33
2023/05/16 00:38:02;;;;;;;15.40;7.68;;;;;;;19.54;51.63;102112.16;5026379;28;20050;-32
2023/05/16 00:40:28;;;;;;;15.82;8.90;;;;;;;19.53;51.95;102106.91;5025978;28;20051;-33
2023/05/16 00:42:55;;;;;;;14.05;8.02;;;;;;;19.54;52.48;102116.66;5023918;28;20132;-32
2023/05/16 00:45:22;;;;;;;16.27;9.10;;;;;;;19.53;52.15;102113.13;5026396;28;20521;-32
2023/05/16 00:47:50;;;;;;;16.38;8.32;;;;;;;19.52;52.29;102108.75;5022001;28;20392;-34
2023/05/16 00:50:17;;;;;;;15.80;8.32;;;;;;;19.51;52.59;102117.81;5026711;28;20049;-33
2023/05/16 00:52:44;;;;;;;14.90;8.73;;;;;;;19.51;52.40;102112.41;5027037;28;20041;-33
2023/05/16 00:55:12;;;;;;;15.68;8.40;;;;;;;19.49;52.57;102114.38;5024025;28;20081;-32
2023/05/16 00:57:39;;;;;;;11.95;7.35;;;;;;;19.49;52.16;102106.31;5023687;28;20052;-32
2023/05/16 01:00:09;;;;;;;14.05;7.63;;;;;;;19.48;52.25;102110.84;5021112;28;20448;-33
2023/05/16 01:02:36;;;;;;;13.70;7.80;;;;;;;19.49;51.84;102117.06;5019741;28;20053;-33
2023/05/16 01:05:07;;;;;;;13.98;8.15;;;;;;;19.47;52.07;102111.84;5018450;28;20072;-33
2023/05/16 01:07:37;;;;;;;13.70;7.40;;;;;;;19.46;52.31;102118.19;5018857;28;20372;-33
2023/05/16 01:10:05;;;;;;;11.90;7.40;;;;;;;19.46;51.81;102112.81;5019163;28;20135;-33
2023/05/16 01:12:56;;;;;;;14.80;7.97;;;;;;;19.45;52.03;102116.47;5019520;28;20130;-32
2023/05/16 01:15:44;;;;;;;13.10;6.95;;;;;;;19.43;52.62;102107.69;5019760;28;20050;-33
2023/05/16 01:18:24;;;;;;;13.73;7.63;;;;;;;19.43;52.51;102107.69;5018144;28;20053;-32
2023/05/16 01:21:03;;;;;;;15.05;7.88;;;;;;;19.44;52.00;102113.94;5016856;28;20049;-33
2023/05/16 01:24:02;;;;;;;12.05;7.07;;;;;;;19.41;52.78;102114.19;5021022;28;20046;-33
2023/05/16 01:26:31;;;;;;;13.98;7.45;;;;;;;19.42;51.98;102115.91;5018668;28;20636;-33
2023/05/16 01:28:58;;;;;;;12.55;6.28;;;;;;;19.41;52.14;102116.88;5019064;28;20189;-32
2023/05/16 01:31:24;;;;;;;10.80;6.55;;;;;;;19.39;52.37;102117.03;5021347;28;20049;-33
2023/05/16 01:33:51;;;;;;;11.73;6.80;;;;;;;19.38;52.15;102118.00;5023084;28;20050;-32
2023/05/16 01:36:44;;;;;;;10.93;6.50;;;;;;;19.36;52.85;102114.59;5024156;28;20041;-35
2023/05/16 01:39:21;;;;;;;11.38;6.45;;;;;;;19.36;52.27;102125.34;5023284;28;20351;-33
2023/05/16 01:41:53;;;;;;;9.63;5.40;;;;;;;19.36;52.11;102113.75;5023115;28;20072;-32
2023/05/16 01:44:32;;;;;;;11.23;6.38;;;;;;;19.35;52.29;102120.09;5022566;28;20091;-32
2023/05/16 01:47:01;;;;;;;11.02;6.43;;;;;;;19.35;52.62;102115.56;5023383;28;20041;-32
2023/05/16 01:49:35;;;;;;;9.68;5.65;;;;;;;19.33;52.47;102116.69;5023042;28;20092;-33
2023/05/16 01:52:10;;;;;;;;;;;;;;;19.31;52.76;102119.50;5024790;28;20045;-32
2023/05/16 01:54:41;;;;;;;11.15;6.00;;;;;;;19.34;52.36;102126.47;5024747;28;20011;-32
2023/05/16 01:57:09;;;;;;;11.93;6.60;;;;;;;19.32;52.32;102125.72;5022855;28;20133;-33
2023/05/16 01:59:37;;;;;;;10.38;6.05;;;;;;;19.30;52.23;102125.88;5020574;28;20140;-33
2023/05/16 02:02:04;;;;;;;10.32;5.50;;;;;;;19.30;52.48;102133.09;5019546;28;20430;-33
2023/05/16 02:04:31;;;;;;;11.02;6.53;;;;;;;19.29;52.42;102128.69;5019570;28;20132;-32
2023/05/16 02:06:59;;;;;;;10.13;5.65;;;;;;;19.29;52.60;102136.75;5025325;28;20042;-32
2023/05/16 02:09:26;;;;;;;9.40;5.85;;;;;;;19.27;52.26;102133.34;5023855;28;20057;-33
2023/05/16 02:11:52;;;;;;;9.25;5.75;;;;;;;19.27;52.66;102133.34;5019455;28;20054;-33
2023/05/16 02:14:19;;;;;;;8.95;5.88;;;;;;;19.25;52.45;102130.78;5022014;28;20053;-33
2023/05/16 02:16:47;;;;;;;11.60;6.10;;;;;;;19.24;52.94;102129.91;5021961;28;20046;-33
2023/05/16 02:19:14;;;;;;;10.32;5.47;;;;;;;19.23;52.68;102132.75;5023427;28;20140;-33
2023/05/16 02:21:41;;;;;;;9.93;5.60;;;;;;;19.22;52.58;102131.91;5020209;28;20064;-32
2023/05/16 02:24:07;;;;;;;8.05;4.47;;;;;;;19.22;52.87;102133.75;5019634;28;20138;-33
2023/05/16 02:26:34;;;;;;;8.55;5.00;;;;;;;19.20;52.78;102139.22;5019568;28;20440;-33
2023/05/16 02:29:01;;;;;;;9.15;4.85;;;;;;;19.21;52.79;102145.44;5022652;28;20057;-32
2023/05/16 02:31:29;;;;;;;8.10;4.72;;;;;;;19.20;52.46;102149.97;5023993;28;20144;-33
2023/05/16 02:33:57;;;;;;;8.52;4.93;;;;;;;19.20;52.86;102138.38;5024045;28;20580;-32
2023/05/16 02:36:24;;;;;;;9.48;4.80;;;;;;;19.18;52.28;102143.91;5027343;28;20046;-33
2023/05/16 02:38:51;;;;;;;7.88;4.63;;;;;;;19.17;52.43;102139.47;5029990;28;20077;-33
2023/05/16 02:41:18;;;;;;;8.07;4.88;;;;;;;19.17;52.77;102147.53;5028598;28;20072;-33
2023/05/16 02:43:44;;;;;;;7.07;4.63;;;;;;;19.16;52.82;102148.53;5031004;28;20346;-33
2023/05/16 02:46:26;;;;;;;8.25;4.28;;;;;;;19.15;52.68;102149.53;5029815;28;20047;-32
2023/05/16 02:48:53;;;;;;;8.25;4.25;;;;;;;19.15;52.83;102148.69;5026591;28;20046;-33
2023/05/16 02:51:21;;;;;;;6.85;3.95;;;;;;;19.15;52.86;102151.38;5025961;28;20169;-33
2023/05/16 02:53:48;;;;;;;7.32;4.20;;;;;;;19.14;52.94;102163.94;5023966;28;20045;-33
2023/05/16 02:56:15;;;;;;;6.93;3.88;;;;;;;19.14;52.68;102155.03;5025967;28;20060;-33
2023/05/16 02:58:42;;;;;;;8.82;4.38;;;;;;;19.12;52.85;102152.47;5025559;28;20138;-32
2023/05/16 03:01:09;;;;;;;7.95;4.38;;;;;;;19.13;52.93;102162.22;5027339;28;20312;-33
2023/05/16 03:03:36;;;;;;;7.13;4.07;;;;;;;19.11;52.84;102153.44;5029232;28;20073;-33
2023/05/16 03:06:03;;;;;;;6.55;3.78;;;;;;;19.12;52.42;102157.84;5021650;28;20517;-32
2023/05/16 03:08:29;;;;;;;8.60;4.07;;;;;;;19.11;52.71;102160.66;5027590;28;20396;-33
2023/05/16 03:10:56;;;;;;;6.70;3.70;;;;;;;19.10;52.67;102154.44;5028333;28;20049;-32
2023/05/16 03:13:23;;;;;;;7.55;4.05;;;;;;;19.10;52.29;102161.66;5027410;28;20180;-32
2023/05/16 03:15:49;;;;;;;8.95;3.80;;;;;;;19.09;52.21;102163.47;5024877;28;20500;-33
2023/05/16 03:18:16;;;;;;;8.70;4.22;;;;;;;19.09;52.98;102168.00;5023697;28;20050;-33
2023/05/16 03:20:42;;;;;;;7.10;3.78;;;;;;;19.08;52.88;102167.13;5023857;28;20056;-33
2023/05/16 03:23:09;;;;;;;7.20;3.83;;;;;;;19.07;52.38;102165.44;5021047;28;20056;-32
2023/05/16 03:25:36;;;;;;;6.15;3.42;;;;;;;19.06;52.63;102171.81;5022415;28;20394;-32
2023/05/16 03:28:06;;;;;;;6.80;3.95;;;;;;;19.06;52.72;102168.25;5023828;28;20144;-32
2023/05/16 03:30:33;;;;;;;7.32;3.92;;;;;;;19.05;52.33;102172.75;5025446;28;20068;-32
2023/05/16 03:33:00;;;;;;;7.22;3.75;;;;;;;19.05;52.79;102175.44;5023324;28;20905;-32
2023/05/16 03:35:27;;;;;;;5.95;3.45;;;;;;;19.04;52.72;102171.06;5025418;28;20050;-32
2023/05/16 03:37:54;;;;;;;6.53;3.58;;;;;;;19.04;52.66;102167.53;5023921;28;20128;-33
2023/05/16 03:40:21;;;;;;;6.28;3.72;;;;;;;19.03;52.86;102168.50;5024401;28;20071;-32
2023/05/16 03:42:47;;;;;;;6.47;3.50;;;;;;;19.03;52.24;102174.75;5024608;28;20484;-33
2023/05/16 03:45:14;;;;;;;5.65;3.20;;;;;;;19.02;52.49;102175.72;5023041;28;20264;-33
2023/05/16 03:47:41;;;;;;;5.00;2.83;;;;;;;19.01;52.47;102176.69;5020107;28;20454;-32
2023/05/16 03:50:08;;;;;;;5.88;3.05;;;;;;;19.01;52.77;102181.22;5023310;28;20553;-33
2023/05/16 03:52:35;;;;;;;5.05;3.10;;;;;;;19.01;52.77;102183.91;5023774;28;20125;-32
2023/05/16 03:55:03;;;;;;;7.40;2.95;;;;;;;19.00;52.82;102185.72;5021764;28;20072;-33
2023/05/16 03:57:31;;;;;;;7.07;3.25;;;;;;;18.99;52.82;102187.56;5023570;28;20060;-32
2023/05/16 03:59:57;;;;;;;8.73;3.85;;;;;;;18.99;51.89;102190.25;5025672;28;20408;-33
2023/05/16 04:02:24;;;;;;;6.30;3.47;;;;;;;18.99;52.28;102186.72;5019945;28;20437;-33
2023/05/16 04:04:51;;;;;;;10.98;3.40;;;;;;;18.98;52.14;102191.25;5021037;28;20046;-32
2023/05/16 04:07:17;;;;;;;7.38;3.70;;;;;;;18.97;52.27;102186.88;5021322;28;20053;-33
2023/05/16 04:09:45;;;;;;;8.43;4.03;;;;;;;18.97;52.71;102189.56;5022245;28;20056;-32
2023/05/16 04:12:11;;;;;;;8.00;3.38;;;;;;;18.97;52.53;102188.66;5019955;28;20056;-32
2023/05/16 04:14:38;;;;;;;7.43;3.33;;;;;;;18.97;52.79;102191.34;5020006;28;20669;-33
2023/05/16 04:17:05;;;;;;;7.35;3.47;;;;;;;18.97;52.12;102192.25;5023424;28;20156;-32
2023/05/16 04:19:31;;;;;;;6.78;3.10;;;;;;;18.97;52.11;102184.19;5023152;28;20049;-33
2023/05/16 04:21:58;;;;;;;7.68;2.95;;;;;;;18.96;52.25;102185.13;5025613;28;20424;-33
2023/05/16 04:24:27;;;;;;;6.65;3.22;;;;;;;18.97;52.54;102194.03;5026027;28;20050;-33
2023/05/16 04:26:54;;;;;;;9.43;3.10;;;;;;;18.96;52.66;102198.56;5022575;28;20085;-32
2023/05/16 04:29:21;;;;;;;7.20;3.00;;;;;;;18.97;52.45;102199.41;5025850;28;20600;-32
2023/05/16 04:31:47;;;;;;;8.38;4.03;;;;;;;18.97;52.82;102216.41;5025628;28;20060;-33
2023/05/16 04:34:14;;;;;;;6.20;2.75;;;;;;;18.97;52.61;102210.16;5025838;28;20347;-32
2023/05/16 04:36:41;;;;;;;6.68;3.58;;;;;;;18.98;52.52;102209.22;5025120;28;20081;-33
2023/05/16 04:39:07;;;;;;;7.78;3.42;;;;;;;18.99;52.21;102205.53;5026900;28;20064;-33
2023/05/16 04:41:34;;;;;;;7.78;3.40;;;;;;;19.00;52.76;102209.91;5024316;28;20413;-33
2023/05/16 04:44:05;;;;;;;8.25;3.55;;;;;;;19.01;51.97;102213.47;5023773;28;20088;-33
2023/05/16 04:46:31;;;;;;;4.28;2.80;;;;;;;19.03;52.17;102220.41;5024946;28;20088;-33
2023/05/16 04:48:58;;;;;;;5.15;3.08;;;;;;;19.04;52.27;102214.06;5019665;28;20054;-32
2023/05/16 04:51:24;;;;;;;5.45;2.80;;;;;;;19.06;51.81;102219.31;5024611;28;20148;-32
2023/05/16 04:53:51;;;;;;;5.38;2.95;;;;;;;19.07;51.68;102226.41;5021806;28;20053;-32
2023/05/16 04:56:18;;;;;;;6.30;2.83;;;;;;;19.09;52.14;102227.09;5022316;28;20053;-32
2023/05/16 04:58:45;;;;;;;5.55;3.10;;;;;;;19.10;52.11;102221.63;5022598;28;20045;-33
2023/05/16 05:01:12;;;;;;;10.10;3.38;;;;;;;19.12;51.91;102234.94;5019555;28;20064;-32
2023/05/16 05:03:39;;;;;;;7.95;3.58;;;;;;;19.15;52.29;102229.31;5024398;28;20061;-32
2023/05/16 05:06:05;;;;;;;6.40;3.03;;;;;;;19.16;52.19;102231.00;5022480;28;20049;-33
2023/05/16 05:08:32;;;;;;;5.63;3.25;;;;;;;19.18;52.34;102224.53;5019760;28;20085;-32
2023/05/16 05:10:58;;;;;;;9.68;3.65;;;;;;;19.19;52.10;102231.59;5020733;28;20050;-33
2023/05/16 05:13:25;;;;;;;5.70;3.22;;;;;;;19.23;52.11;102230.38;5020037;28;20046;-33
2023/05/16 05:15:52;;;;;;;9.32;3.45;;;;;;;19.24;51.94;102229.38;5023034;28;20080;-33
2023/05/16 05:18:18;;;;;;;6.63;3.35;;;;;;;19.28;51.76;102232.66;5022697;28;20052;-33
2023/05/16 05:20:45;;;;;;;5.70;3.13;;;;;;;19.30;51.65;102229.88;5024887;28;20049;-32
2023/05/16 05:23:12;;;;;;;8.65;3.55;;;;;;;19.34;51.60;102228.63;5025252;28;20053;-33
2023/05/16 05:25:38;;;;;;;9.13;3.88;;;;;;;19.36;51.76;102229.34;5018700;28;20045;-33
2023/05/16 05:28:05;;;;;;;7.47;3.65;;;;;;;19.37;51.62;102228.34;5022846;28;20389;-32
2023/05/16 05:30:31;;;;;;;8.38;4.50;;;;;;;19.40;51.45;102234.34;5020283;28;20042;-32
2023/05/16 05:32:58;;;;;;;9.10;4.47;;;;;;;19.43;51.51;102236.78;5022829;28;20058;-33
2023/05/16 05:35:24;;;;;;;8.25;4.07;;;;;;;19.45;51.12;102233.94;5019381;28;20957;-34
2023/05/16 05:37:52;;;;;;;7.82;4.32;;;;;;;19.48;51.26;102239.06;5022983;28;20068;-33
2023/05/16 05:40:18;;;;;;;7.65;3.95;;;;;;;19.49;51.76;102236.22;5023755;28;20412;-33
2023/05/16 05:42:45;;;;;;;6.38;3.83;;;;;;;19.50;51.07;102237.13;5021829;28;20763;-33
2023/05/16 05:45:14;;;;;;;8.38;4.07;;;;;;;19.53;51.62;102238.66;5022405;28;20437;-32
2023/05/16 05:47:42;;;;;;;9.15;4.50;;;;;;;19.54;51.19;102243.94;5019337;28;20341;-33
2023/05/16 05:50:13;;;;;;;9.82;4.82;;;;;;;19.55;51.19;102251.03;5023148;28;20520;-33
2023/05/16 05:52:39;;;;;;;8.63;4.82;;;;;;;19.57;51.26;102253.56;5025815;28;20057;-32
2023/05/16 05:55:06;;;;;;;9.00;4.32;;;;;;;19.57;51.37;102259.78;5021359;28;20059;-33
2023/05/16 05:57:33;;;;;;;9.45;4.30;;;;;;;19.59;51.21;102262.38;5023493;28;20136;-32
2023/05/16 05:59:59;;;;;;;7.55;4.50;;;;;;;19.59;51.15;102262.38;5023759;28;20144;-33
2023/05/16 06:02:26;;;;;;;9.75;4.78;;;;;;;19.59;50.88;102262.38;5015640;28;20069;-33
2023/05/16 06:04:52;;;;;;;10.82;4.88;;;;;;;19.61;51.26;102263.09;5019284;28;20061;-32
2023/05/16 06:07:19;;;;;;;8.20;4.28;;;;;;;19.59;50.72;102265.91;5020507;28;20052;-33
2023/05/16 06:09:46;;;;;;;11.35;4.80;;;;;;;19.59;50.97;102270.44;5025670;28;20076;-33
2023/05/16 06:12:12;;;;;;;10.10;4.55;;;;;;;19.60;51.00;102270.31;5026121;28;20132;-32
2023/05/16 06:14:39;;;;;;;11.18;4.85;;;;;;;19.59;50.99;102265.06;5025218;28;20145;-33
2023/05/16 06:17:06;;;;;;;8.40;4.35;;;;;;;19.57;51.02;102265.19;5027407;28;20052;-32
2023/05/16 06:19:32;;;;;;;8.27;4.00;;;;;;;19.58;50.83;102272.28;5022576;28;20073;-33
2023/05/16 06:21:59;;;;;;;8.30;4.63;;;;;;;19.60;50.87;102274.84;5023415;28;20064;-32
2023/05/16 06:24:25;;;;;;;7.32;4.63;;;;;;;19.60;50.49;102275.69;5021971;28;20136;-34
2023/05/16 06:26:52;;;;;;;9.48;4.22;;;;;;;19.61;50.72;102272.03;5019053;28;20041;-33
2023/05/16 06:29:19;;;;;;;9.10;4.47;;;;;;;19.61;50.65;102280.09;5026581;28;20049;-33
2023/05/16 06:31:48;;;;;;;8.13;4.25;;;;;;;19.63;51.38;102277.31;5024188;28;20059;-33
2023/05/16 06:34:15;;;;;;;8.57;4.35;;;;;;;19.64;50.71;102277.16;5027043;28;20127;-33
2023/05/16 06:36:43;;;;;;;9.02;4.50;;;;;;;19.63;51.07;102280.84;5022262;28;20042;-32
2023/05/16 06:39:09;;;;;;;10.35;4.38;;;;;;;19.65;50.74;102278.00;5025651;28;20050;-33
2023/05/16 06:41:36;;;;;;;7.35;3.80;;;;;;;19.64;50.94;102282.53;5023868;28;20425;-33
2023/05/16 06:44:03;;;;;;;8.80;4.40;;;;;;;19.64;50.38;102282.53;5024827;28;20049;-32
2023/05/16 06:46:31;;;;;;;8.65;4.70;;;;;;;19.65;50.51;102281.56;5023223;28;20046;-32
2023/05/16 06:48:58;;;;;;;8.25;3.95;;;;;;;19.64;50.56;102287.06;5028040;28;20407;-32
2023/05/16 06:51:24;;;;;;;12.10;4.95;;;;;;;19.65;50.88;102276.16;5025496;28;20358;-33
2023/05/16 06:53:51;;;;;;;7.88;4.47;;;;;;;19.65;50.82;102278.88;5029135;28;20077;-32
2023/05/16 06:56:18;;;;;;;7.70;4.00;;;;;;;19.66;51.06;102282.44;5029373;28;20108;-34
2023/05/16 06:58:44;;;;;;;7.93;4.20;;;;;;;19.66;50.64;102283.28;5027330;28;20049;-33
2023/05/16 07:01:11;;;;;;;8.65;3.80;;;;;;;19.67;50.86;102286.81;5024565;28;20459;-32
2023/05/16 07:03:38;;;;;;;8.13;4.22;;;;;;;19.68;50.58;102278.63;5026753;28;20054;-32
2023/05/16 07:06:05;;;;;;;9.10;4.28;;;;;;;19.70;50.75;102281.19;5025799;28;20180;-33
2023/05/16 07:08:32;;;;;;;8.13;3.67;;;;;;;19.69;50.81;102274.94;5026121;28;20069;-33
2023/05/16 07:10:58;;;;;;;8.02;4.15;;;;;;;19.70;50.60;102283.88;5026812;28;20081;-33
2023/05/16 07:13:25;;;;;;;6.53;3.83;;;;;;;19.70;50.50;102287.41;5024843;28;20208;-33
2023/05/16 07:15:52;;;;;;;7.43;3.92;;;;;;;19.70;50.54;102291.94;5025083;28;20057;-33
2023/05/16 07:18:18;;;;;;;7.05;3.92;;;;;;;19.70;50.75;102286.56;5021705;28;20107;-33
2023/05/16 07:20:45;;;;;;;8.32;3.72;;;;;;;19.70;50.80;102292.81;5024908;28;20084;-32
2023/05/16 07:23:12;;;;;;;7.82;3.72;;;;;;;19.69;50.35;102293.75;5029075;28;20108;-33
2023/05/16 07:25:38;;;;;;;7.30;3.78;;;;;;;19.70;50.32;102295.50;5024258;28;20052;-32
2023/05/16 07:28:05;;;;;;;7.82;3.83;;;;;;;19.70;50.35;102302.72;5022225;28;20668;-33
2023/05/16 07:30:32;;;;;;;5.82;3.17;;;;;;;19.70;50.86;102302.72;5026173;28;20049;-32
2023/05/16 07:32:58;;;;;;;7.53;3.53;;;;;;;19.70;50.80;102303.56;5023249;28;20318;-33
2023/05/16 07:35:25;;;;;;;7.10;3.55;;;;;;;19.69;50.36;102304.53;5023718;28;20045;-32
2023/05/16 07:37:52;;;;;;;15.75;3.80;;;;;;;19.71;51.23;102304.41;5021059;28;20048;-32
2023/05/16 07:40:24;;;;;;;6.32;3.08;;;;;;;19.71;51.42;102301.72;5027512;28;20151;-33
2023/05/16 07:42:51;;;;;;;9.95;4.25;;;;;;;19.71;51.29;102294.50;5026854;28;20053;-33
2023/05/16 07:45:18;;;;;;;12.13;4.35;;;;;;;19.73;50.60;102297.91;5027681;28;20054;-32
2023/05/16 07:47:45;;;;;;;11.95;4.63;;;;;;;19.75;51.46;102288.88;5025400;28;20053;-33
2023/05/16 07:50:11;;;;;;;8.82;4.43;;;;;;;19.76;51.04;102293.25;5023667;28;20060;-33
2023/05/16 07:52:38;;;;;;;11.20;3.90;;;;;;;19.77;51.54;102294.97;5025576;28;20049;-33
2023/05/16 07:55:05;;;;;;;8.63;3.83;;;;;;;19.77;50.85;102292.25;5026824;28;20203;-33
2023/05/16 07:57:32;;;;;;;12.48;4.18;;;;;;;19.78;51.18;102293.97;5026213;28;20096;-33
2023/05/16 07:59:59;;;;;;;9.95;3.90;;;;;;;19.79;51.21;102298.38;5027387;28;20380;-32
2023/05/16 08:02:29;;;;;;;11.57;4.10;;;;;;;19.79;51.25;102293.84;5000310;28;20062;-33
2023/05/16 08:04:56;;;;;;;11.35;4.50;;;;;;;19.79;50.83;102303.78;5022422;28;20046;-33
2023/05/16 08:07:23;;;;;;;13.57;4.15;;;;;;;19.81;51.50;102304.47;5022696;28;20038;-32
2023/05/16 08:09:50;;;;;;;13.85;3.70;;;;;;;19.80;51.21;102311.69;5026728;28;20391;-33
2023/05/16 08:12:16;;;;;;;9.23;4.10;;;;;;;19.82;51.45;102311.56;5023175;28;20050;-33
2023/05/16 08:14:43;;;;;;;7.78;3.78;;;;;;;19.80;50.85;102309.00;5023467;28;20730;-32
2023/05/16 08:17:09;;;;;;;9.18;3.65;;;;;;;19.82;50.80;102311.56;5018804;28;20045;-32
2023/05/16 08:19:36;;;;;;;10.15;4.15;;;;;;;19.81;51.45;102318.78;5021723;28;20430;-34
2023/05/16 08:22:05;;;;;;;9.07;4.10;;;;;;;19.81;51.53;102305.31;5023258;28;20129;-32
2023/05/16 08:24:32;;;;;;;12.98;4.32;;;;;;;19.83;51.21;102311.44;5026499;28;20108;-32
2023/05/16 08:26:59;;;;;;;10.75;4.07;;;;;;;19.83;51.28;102311.44;5026488;28;20479;-32
2023/05/16 08:29:25;;;;;;;11.98;3.95;;;;;;;19.84;50.81;102315.84;5029225;28;20139;-33
2023/05/16 08:31:52;;;;;;;9.07;3.35;;;;;;;19.86;51.27;102311.19;5024743;28;20057;-33
2023/05/16 08:34:19;;;;;;;10.15;3.58;;;;;;;19.85;51.52;102306.78;5025906;28;20056;-32
2023/05/16 08:36:46;;;;;;;10.35;4.13;;;;;;;19.86;51.31;102307.63;5021553;28;20045;-34
2023/05/16 08:39:12;;;;;;;9.55;3.72;;;;;;;19.87;50.71;102306.66;5027543;28;20448;-33
2023/05/16 08:41:39;;;;;;;8.65;3.47;;;;;;;19.88;51.13;102308.34;5024468;28;20045;-34
2023/05/16 08:44:06;;;;;;;11.55;4.00;;;;;;;19.87;50.66;102299.44;5024614;28;20064;-34
2023/05/16 08:46:34;;;;;;;7.28;3.30;;;;;;;19.88;51.35;102301.13;5024067;28;20842;-34
2023/05/16 08:49:06;;;;;;;9.13;3.78;;;;;;;19.89;51.06;102310.91;5023997;28;20092;-34
2023/05/16 08:51:35;;;;;;;10.35;3.38;;;;;;;19.89;51.03;102313.59;5022864;28;20209;-34
2023/05/16 08:54:05;;;;;;;11.57;3.13;;;;;;;19.92;50.87;102307.13;5025641;28;20049;-33
2023/05/16 08:56:33;;;;;;;8.90;3.50;;;;;;;19.92;51.24;102313.34;5023929;28;20060;-33
2023/05/16 08:59:01;;;;;;;8.43;3.45;;;;;;;19.93;51.31;102311.50;5024511;28;20053;-34
2023/05/16 09:01:31;;;;;;;9.32;3.20;;;;;;;19.96;51.17;102316.63;5022162;28;20156;-33
2023/05/16 09:03:59;;;;;;;7.97;3.40;;;;;;;19.98;51.23;102306.59;5018135;28;20056;-34
2023/05/16 09:06:26;;;;;;;8.32;3.05;;;;;;;19.99;50.88;102302.94;5024957;28;20046;-33
2023/05/16 09:08:53;;;;;;;5.78;2.80;;;;;;;20.01;51.06;102309.00;5022073;28;20442;-33
2023/05/16 09:11:20;;;;;;;8.43;3.05;;;;;;;20.04;50.31;102306.06;5024507;28;20053;-33
2023/05/16 09:13:48;;;;;;;9.60;2.90;;;;;;;20.06;50.61;102309.50;5024075;28;20085;-34
2023/05/16 09:16:17;;;;;;;5.68;2.42;;;;;;;20.08;50.19;102315.59;5021941;28;20060;-34
2023/05/16 09:18:46;;;;;;;5.22;2.28;;;;;;;20.09;50.58;102319.13;5022213;28;20315;-34
2023/05/16 09:21:14;;;;;;;6.50;2.53;;;;;;;20.11;50.59;102319.88;5026273;28;20052;-34
2023/05/16 09:23:43;;;;;;;8.05;2.88;;;;;;;20.13;49.76;102320.56;5019552;28;20054;-34
2023/05/16 09:26:10;;;;;;;7.47;2.28;;;;;;;20.16;49.82;102331.09;5020599;28;20073;-36
2023/05/16 09:28:38;;;;;;;6.63;2.38;;;;;;;20.19;49.53;102330.81;5017962;28;20045;-33
2023/05/16 09:31:23;;;;;;;4.72;2.22;;;;;;;20.19;49.69;102334.38;5015007;28;20437;-33
2023/05/16 09:33:50;;;;;;;8.15;2.17;;;;;;;20.23;49.24;102331.44;5017348;28;20916;-34
2023/05/16 09:36:17;;;;;;;5.43;2.00;;;;;;;20.28;49.38;102330.03;5019834;28;20049;-34
2023/05/16 09:38:44;;;;;;;6.32;1.80;;;;;;;20.30;49.28;102329.88;5019834;28;20046;-33
2023/05/16 09:41:11;;;;;;;8.15;2.30;;;;;;;20.34;49.60;102329.50;5026637;28;20088;-33
2023/05/16 09:43:42;;;;;;;4.30;1.63;;;;;;;20.39;49.31;102326.41;5025255;28;21172;-33
2023/05/16 09:46:15;;;;;;;4.57;1.75;;;;;;;20.40;49.37;102330.81;5023230;28;20045;-34
2023/05/16 09:48:46;;;;;;;3.33;1.48;;;;;;;20.43;48.93;102330.56;5022262;28;20140;-34
2023/05/16 09:51:14;;;;;;;4.40;1.60;;;;;;;20.46;48.70;102327.56;5024348;28;20080;-34
2023/05/16 09:53:41;;;;;;;9.02;2.63;;;;;;;20.46;49.07;102332.94;5022093;28;20111;-34
2023/05/16 09:56:11;;;;;;;6.03;1.52;;;;;;;20.52;48.89;102334.31;5022276;28;20418;-34
2023/05/16 09:58:40;;;;;;;5.75;2.35;;;;;;;20.52;48.92;102328.94;5021566;28;20417;-34
2023/05/16 10:01:08;;;;;;;4.18;1.52;;;;;;;20.53;48.36;102334.16;5021190;28;20500;-33
2023/05/16 10:03:38;;;;;;;4.05;1.70;;;;;;;20.54;48.75;102335.88;5023881;28;20050;-33
2023/05/16 10:06:06;;;;;;;3.90;1.63;;;;;;;20.58;48.61;102331.06;5024494;28;20049;-34
2023/05/16 10:08:37;;;;;;;5.30;1.50;;;;;;;20.60;48.57;102335.34;5025191;28;20107;-34
2023/05/16 10:11:05;;;;;;;5.22;1.40;;;;;;;20.61;48.75;102328.09;5020987;28;20403;-34
2023/05/16 10:13:34;;;;;;;3.72;1.98;;;;;;;20.61;48.64;102331.66;5021659;28;20054;-34
2023/05/16 10:16:08;;;;;;;3.92;2.08;;;;;;;20.62;48.48;102338.78;5021225;28;20504;-34
2023/05/16 10:18:37;;;;;;;6.53;2.83;;;;;;;20.62;48.11;102338.78;5024471;28;20072;-34
2023/05/16 10:21:10;;;;;;;9.95;2.72;;;;;;;20.63;48.44;102337.78;5021143;28;20053;-33
2023/05/16 10:23:41;;;;;;;8.23;2.92;;;;;;;20.63;48.22;102335.09;5020862;28;20046;-34
2023/05/16 10:26:08;;;;;;;6.38;3.33;;;;;;;20.64;48.05;102330.53;5027335;28;20053;-33
2023/05/16 10:28:35;;;;;;;8.27;3.75;;;;;;;20.65;48.09;102335.78;5022383;28;20542;-34
2023/05/16 10:31:03;;;;;;;8.32;4.70;;;;;;;20.65;48.56;102330.41;5022692;28;20057;-34
2023/05/16 10:33:29;;;;;;;12.05;5.40;;;;;;;20.66;48.51;102331.25;5021440;28;20058;-34
2023/05/16 10:35:57;;;;;;;11.63;5.07;;;;;;;20.65;48.56;102332.25;5025396;28;20104;-34
2023/05/16 10:38:24;;;;;;;11.60;5.32;;;;;;;20.65;48.48;102335.78;5020851;28;20342;-33
2023/05/16 10:40:51;;;;;;;11.15;4.85;;;;;;;20.65;48.24;102337.63;5023070;28;20076;-34
2023/05/16 10:43:25;;;;;;;9.77;4.93;;;;;;;20.66;48.68;102340.22;5019953;28;20049;-34
2023/05/16 10:45:57;;;;;;;11.82;6.15;;;;;;;20.69;48.03;102329.13;5022241;28;20072;-34
2023/05/16 10:48:37;;;;;;;12.18;6.55;;;;;;;20.73;48.09;102320.78;5022403;28;20049;-34
2023/05/16 10:51:37;;;;;;;14.27;6.93;;;;;;;20.75;47.83;102319.69;5020532;28;20061;-34
2023/05/16 10:54:07;;;;;;;12.63;6.43;;;;;;;20.79;47.79;102331.03;5018707;28;20554;-34
2023/05/16 10:56:34;;;;;;;12.32;6.65;;;;;;;20.80;47.42;102327.34;5022752;28;20341;-34
2023/05/16 10:59:01;;;;;;;14.27;7.18;;;;;;;20.83;47.94;102324.41;5023518;28;20053;-35
2023/05/16 11:01:34;;;;;;;14.00;6.85;;;;;;;20.84;47.52;102324.25;5025383;28;20825;-34
2023/05/16 11:04:05;;;;;;;13.43;7.00;;;;;;;20.89;47.59;102324.69;5025075;28;20077;-34
2023/05/16 11:06:42;;;;;;;14.45;7.05;;;;;;;20.91;47.42;102327.25;5025359;28;20053;-34
2023/05/16 11:09:09;;;;;;;17.92;8.40;;;;;;;20.94;47.55;102335.06;5024459;28;20077;-34
2023/05/16 11:11:49;;;;;;;15.77;8.35;;;;;;;20.97;47.65;102332.09;5027963;28;20484;-33
2023/05/16 11:14:37;;;;;;;22.20;9.13;;;;;;;20.99;47.66;102323.88;5025159;28;20049;-33
2023/05/16 11:17:11;;;;;;;20.35;9.68;;;;;;;21.00;47.52;102323.72;5020064;28;20076;-35
2023/05/16 11:19:53;;;;;;;19.30;9.75;;;;;;;21.00;47.45;102321.03;5023185;28;20134;-34
2023/05/16 11:22:23;;;;;;;17.98;9.02;;;;;;;21.01;47.38;102336.22;5040248;28;20053;-34
2023/05/16 11:24:51;;;;;;;18.63;9.25;;;;;;;21.00;47.61;102336.38;5021405;28;20053;-34
2023/05/16 11:27:21;;;;;;;19.52;9.32;;;;;;;20.99;47.43;102330.13;5023825;28;20068;-34